Sao Miguel, Brazil
Current Conditions -  °F | °C
As of 2:00 PM on Friday 24 Oct 2014 (Local Time) from SBJU Reporting Station
Few Clouds Few Clouds  
Wind Chill: 97°   Ceiling: Unl
Heat Index: 97°   Visibility: 6mi
Dew Point: 61°   Wind: 5mph
Humidity: 30%   Direction: 180°S
Pressure: 29.91"   Gusts: NA
Location:  6.21°S, 38.5°W
Report Text: SBJU 241700Z 18004KT 9999 FEW022 36/16 Q1013
Loading
Personal Weather Stations






























Interactive Weather Map
Tropical Storm Tracking
New forecast layout! Learn more

10-Day Weather Forecast

Advertisements
Track Severe Weather on mobile